sensor_id;sensor_type;location;lat;lon;timestamp;pressure;altitude;pressure_sealevel;temperature;humidity
72558;BME280;60583;50.094;8.748;2022-07-23T00:00:44;100426.78;;;22.80;58.82
72558;BME280;60583;50.094;8.748;2022-07-23T00:03:09;100423.00;;;22.61;59.69
72558;BME280;60583;50.094;8.748;2022-07-23T00:05:35;100383.09;;;22.46;59.47
72558;BME280;60583;50.094;8.748;2022-07-23T00:08:00;100413.50;;;22.58;59.66
72558;BME280;60583;50.094;8.748;2022-07-23T00:10:26;100397.78;;;22.50;59.73
72558;BME280;60583;50.094;8.748;2022-07-23T00:12:51;100398.03;;;22.54;59.66
72558;BME280;60583;50.094;8.748;2022-07-23T00:15:17;100398.84;;;22.49;59.91
72558;BME280;60583;50.094;8.748;2022-07-23T00:17:42;100394.28;;;22.40;60.11
72558;BME280;60583;50.094;8.748;2022-07-23T00:20:08;100393.75;;;22.28;60.71
72558;BME280;60583;50.094;8.748;2022-07-23T00:22:33;100393.19;;;22.25;60.81
72558;BME280;60583;50.094;8.748;2022-07-23T00:24:58;100402.19;;;22.21;60.76
72558;BME280;60583;50.094;8.748;2022-07-23T00:27:24;100404.06;;;22.25;60.46
72558;BME280;60583;50.094;8.748;2022-07-23T00:29:49;100395.13;;;22.20;60.65
72558;BME280;60583;50.094;8.748;2022-07-23T00:32:15;100401.09;;;22.22;60.97
72558;BME280;60583;50.094;8.748;2022-07-23T00:34:40;100412.22;;;22.15;61.25
72558;BME280;60583;50.094;8.748;2022-07-23T00:37:06;100428.81;;;22.19;61.15
72558;BME280;60583;50.094;8.748;2022-07-23T00:39:31;100417.41;;;22.17;61.18
72558;BME280;60583;50.094;8.748;2022-07-23T00:41:57;100420.94;;;22.12;61.23
72558;BME280;60583;50.094;8.748;2022-07-23T00:44:24;100411.97;;;22.12;61.40
72558;BME280;60583;50.094;8.748;2022-07-23T00:46:56;100407.63;;;22.06;61.12
72558;BME280;60583;50.094;8.748;2022-07-23T00:49:23;100409.28;;;22.07;61.55
72558;BME280;60583;50.094;8.748;2022-07-23T00:51:49;100401.66;;;22.04;61.61
72558;BME280;60583;50.094;8.748;2022-07-23T00:54:19;100397.88;;;22.05;61.56
72558;BME280;60583;50.094;8.748;2022-07-23T00:56:47;100399.47;;;22.06;61.55
72558;BME280;60583;50.094;8.748;2022-07-23T00:59:13;100388.09;;;21.89;62.15
72558;BME280;60583;50.094;8.748;2022-07-23T01:01:38;100395.41;;;21.93;61.97
72558;BME280;60583;50.094;8.748;2022-07-23T01:04:04;100400.31;;;21.86;62.36
72558;BME280;60583;50.094;8.748;2022-07-23T01:06:34;100398.94;;;21.79;62.62
72558;BME280;60583;50.094;8.748;2022-07-23T01:09:00;100401.66;;;21.74;62.73
72558;BME280;60583;50.094;8.748;2022-07-23T01:11:25;100394.03;;;21.66;63.06
72558;BME280;60583;50.094;8.748;2022-07-23T01:13:51;100395.69;;;21.67;63.07
72558;BME280;60583;50.094;8.748;2022-07-23T01:16:16;100398.66;;;21.65;63.52
72558;BME280;60583;50.094;8.748;2022-07-23T01:18:41;100398.38;;;21.56;63.83
72558;BME280;60583;50.094;8.748;2022-07-23T01:21:08;100405.72;;;21.51;64.20
72558;BME280;60583;50.094;8.748;2022-07-23T01:23:38;100404.06;;;21.45;64.31
72558;BME280;60583;50.094;8.748;2022-07-23T01:26:03;100420.91;;;21.47;64.45
72558;BME280;60583;50.094;8.748;2022-07-23T01:28:29;100421.97;;;21.41;64.92
72558;BME280;60583;50.094;8.748;2022-07-23T01:30:54;100434.50;;;21.52;64.51
72558;BME280;60583;50.094;8.748;2022-07-23T01:33:20;100434.47;;;21.42;65.08
72558;BME280;60583;50.094;8.748;2022-07-23T01:35:46;100426.56;;;21.30;65.45
72558;BME280;60583;50.094;8.748;2022-07-23T01:38:11;100430.94;;;21.41;65.07
72558;BME280;60583;50.094;8.748;2022-07-23T01:40:37;100434.72;;;21.45;64.81
72558;BME280;60583;50.094;8.748;2022-07-23T01:43:02;100436.88;;;21.33;65.81
72558;BME280;60583;50.094;8.748;2022-07-23T01:45:27;100426.03;;;21.38;66.15
72558;BME280;60583;50.094;8.748;2022-07-23T01:47:53;100425.75;;;21.40;65.90
72558;BME280;60583;50.094;8.748;2022-07-23T01:50:18;100416.25;;;21.32;66.55
72558;BME280;60583;50.094;8.748;2022-07-23T01:52:44;100421.97;;;21.36;66.59
72558;BME280;60583;50.094;8.748;2022-07-23T01:55:09;100410.03;;;21.42;66.18
72558;BME280;60583;50.094;8.748;2022-07-23T01:57:34;100379.91;;;21.38;66.25
72558;BME280;60583;50.094;8.748;2022-07-23T02:00:00;100358.91;;;20.93;67.55
72558;BME280;60583;50.094;8.748;2022-07-23T02:02:25;100383.56;;;20.97;67.98
72558;BME280;60583;50.094;8.748;2022-07-23T02:04:50;100386.88;;;21.04;67.83
72558;BME280;60583;50.094;8.748;2022-07-23T02:07:16;100402.03;;;21.00;68.28
72558;BME280;60583;50.094;8.748;2022-07-23T02:09:42;100409.63;;;20.98;68.15
72558;BME280;60583;50.094;8.748;2022-07-23T02:12:07;100413.13;;;20.93;68.21
72558;BME280;60583;50.094;8.748;2022-07-23T02:14:33;100421.53;;;20.97;67.88
72558;BME280;60583;50.094;8.748;2022-07-23T02:16:58;100427.50;;;20.89;68.13
72558;BME280;60583;50.094;8.748;2022-07-23T02:19:23;100433.97;;;20.83;68.70
72558;BME280;60583;50.094;8.748;2022-07-23T02:21:49;100435.59;;;20.79;68.59
72558;BME280;60583;50.094;8.748;2022-07-23T02:24:15;100432.34;;;20.87;68.02
72558;BME280;60583;50.094;8.748;2022-07-23T02:26:40;100438.63;;;20.92;67.69
72558;BME280;60583;50.094;8.748;2022-07-23T02:29:06;100463.31;;;20.96;67.71
72558;BME280;60583;50.094;8.748;2022-07-23T02:31:32;100465.47;;;20.94;67.82
72558;BME280;60583;50.094;8.748;2022-07-23T02:33:57;100453.00;;;20.98;67.47
72558;BME280;60583;50.094;8.748;2022-07-23T02:36:23;100452.50;;;21.01;67.24
72558;BME280;60583;50.094;8.748;2022-07-23T02:38:48;100448.09;;;20.95;67.17
72558;BME280;60583;50.094;8.748;2022-07-23T02:41:14;100441.34;;;20.97;67.30
72558;BME280;60583;50.094;8.748;2022-07-23T02:43:39;100423.47;;;20.96;67.13
72558;BME280;60583;50.094;8.748;2022-07-23T02:46:05;100432.31;;;20.82;67.62
72558;BME280;60583;50.094;8.748;2022-07-23T02:48:30;100435.31;;;20.80;67.75
72558;BME280;60583;50.094;8.748;2022-07-23T02:50:56;100427.72;;;20.82;67.38
72558;BME280;60583;50.094;8.748;2022-07-23T02:53:22;100431.81;;;20.85;67.51
72558;BME280;60583;50.094;8.748;2022-07-23T02:55:48;100440.47;;;20.82;67.60
72558;BME280;60583;50.094;8.748;2022-07-23T02:58:13;100426.16;;;20.91;67.18
72558;BME280;60583;50.094;8.748;2022-07-23T03:00:39;100432.66;;;20.95;67.23
72558;BME280;60583;50.094;8.748;2022-07-23T03:03:04;100427.50;;;20.89;67.22
72558;BME280;60583;50.094;8.748;2022-07-23T03:05:30;100432.91;;;20.89;67.20
72558;BME280;60583;50.094;8.748;2022-07-23T03:07:55;100434.53;;;20.90;67.14
72558;BME280;60583;50.094;8.748;2022-07-23T03:10:20;100427.50;;;20.89;67.30
72558;BME280;60583;50.094;8.748;2022-07-23T03:12:46;100431.03;;;20.94;66.84
72558;BME280;60583;50.094;8.748;2022-07-23T03:15:11;100435.06;;;20.87;67.02
72558;BME280;60583;50.094;8.748;2022-07-23T03:17:36;100426.69;;;20.88;66.88
72558;BME280;60583;50.094;8.748;2022-07-23T03:20:02;100436.72;;;20.93;66.87
72558;BME280;60583;50.094;8.748;2022-07-23T03:22:28;100435.63;;;20.89;66.90
72558;BME280;60583;50.094;8.748;2022-07-23T03:24:53;100429.13;;;20.95;66.54
72558;BME280;60583;50.094;8.748;2022-07-23T03:27:19;100444.53;;;20.84;66.78
72558;BME280;60583;50.094;8.748;2022-07-23T03:29:44;100441.81;;;20.84;66.94
72558;BME280;60583;50.094;8.748;2022-07-23T03:32:10;100448.59;;;20.82;67.09
72558;BME280;60583;50.094;8.748;2022-07-23T03:34:35;100450.19;;;20.73;67.17
72558;BME280;60583;50.094;8.748;2022-07-23T03:37:01;100457.53;;;20.77;67.27
72558;BME280;60583;50.094;8.748;2022-07-23T03:39:26;100457.75;;;20.66;67.69
72558;BME280;60583;50.094;8.748;2022-07-23T03:41:52;100461.81;;;20.68;67.52
72558;BME280;60583;50.094;8.748;2022-07-23T03:44:17;100473.19;;;20.65;67.81
72558;BME280;60583;50.094;8.748;2022-07-23T03:46:43;100471.03;;;20.67;67.44
72558;BME280;60583;50.094;8.748;2022-07-23T03:49:08;100474.03;;;20.71;67.46
72558;BME280;60583;50.094;8.748;2022-07-23T03:51:33;100472.41;;;20.75;67.30
72558;BME280;60583;50.094;8.748;2022-07-23T03:53:59;100469.97;;;20.73;67.41
72558;BME280;60583;50.094;8.748;2022-07-23T03:56:24;100485.38;;;20.63;68.03
72558;BME280;60583;50.094;8.748;2022-07-23T03:58:51;100489.41;;;20.60;68.05
72558;BME280;60583;50.094;8.748;2022-07-23T04:01:16;100481.28;;;20.60;68.07
72558;BME280;60583;50.094;8.748;2022-07-23T04:03:42;100501.63;;;20.63;68.17
72558;BME280;60583;50.094;8.748;2022-07-23T04:06:07;100489.41;;;20.60;68.19
72558;BME280;60583;50.094;8.748;2022-07-23T04:08:33;100495.09;;;20.59;67.78
72558;BME280;60583;50.094;8.748;2022-07-23T04:10:59;100479.69;;;20.64;67.87
72558;BME280;60583;50.094;8.748;2022-07-23T04:13:25;100472.34;;;20.65;68.00
72558;BME280;60583;50.094;8.748;2022-07-23T04:15:50;100477.75;;;20.60;68.16
72558;BME280;60583;50.094;8.748;2022-07-23T04:18:16;100491.25;;;20.55;68.49
72558;BME280;60583;50.094;8.748;2022-07-23T04:20:43;100501.09;;;20.66;68.41
72558;BME280;60583;50.094;8.748;2022-07-23T04:23:09;100495.66;;;20.61;68.17
72558;BME280;60583;50.094;8.748;2022-07-23T04:25:35;100492.63;;;20.57;68.48
72558;BME280;60583;50.094;8.748;2022-07-23T04:28:00;100496.88;;;20.43;68.73
72558;BME280;60583;50.094;8.748;2022-07-23T04:30:26;100497.75;;;20.49;68.35
72558;BME280;60583;50.094;8.748;2022-07-23T04:32:51;100507.38;;;20.34;69.18
72558;BME280;60583;50.094;8.748;2022-07-23T04:35:17;100515.44;;;20.24;69.36
72558;BME280;60583;50.094;8.748;2022-07-23T04:37:42;100509.53;;;20.32;69.24
72558;BME280;60583;50.094;8.748;2022-07-23T04:40:08;100518.81;;;20.37;68.90
72558;BME280;60583;50.094;8.748;2022-07-23T04:42:34;100518.81;;;20.37;68.89
72558;BME280;60583;50.094;8.748;2022-07-23T04:44:59;100519.56;;;20.32;69.09
72558;BME280;60583;50.094;8.748;2022-07-23T04:47:24;100518.72;;;20.26;68.89
72558;BME280;60583;50.094;8.748;2022-07-23T04:49:50;100518.66;;;20.21;69.27
72558;BME280;60583;50.094;8.748;2022-07-23T04:52:15;100525.56;;;20.07;69.85
72558;BME280;60583;50.094;8.748;2022-07-23T04:54:40;100541.84;;;20.12;69.89
72558;BME280;60583;50.094;8.748;2022-07-23T04:57:06;100549.03;;;20.23;69.44
72558;BME280;60583;50.094;8.748;2022-07-23T04:59:31;100546.47;;;20.44;68.47
72558;BME280;60583;50.094;8.748;2022-07-23T05:01:57;100551.41;;;20.47;68.56
72558;BME280;60583;50.094;8.748;2022-07-23T05:04:22;100548.69;;;20.47;68.10
72558;BME280;60583;50.094;8.748;2022-07-23T05:06:47;100545.50;;;20.60;67.94
72558;BME280;60583;50.094;8.748;2022-07-23T05:09:13;100539.31;;;20.64;67.10
72558;BME280;60583;50.094;8.748;2022-07-23T05:11:38;100548.78;;;20.67;67.08
72558;BME280;60583;50.094;8.748;2022-07-23T05:14:03;100550.16;;;20.69;67.01
72558;BME280;60583;50.094;8.748;2022-07-23T05:16:29;100556.34;;;20.60;66.87
72558;BME280;60583;50.094;8.748;2022-07-23T05:18:54;100558.31;;;20.69;66.93
72558;BME280;60583;50.094;8.748;2022-07-23T05:21:20;100572.38;;;20.61;66.83
72558;BME280;60583;50.094;8.748;2022-07-23T05:23:45;100570.44;;;20.57;66.93
72558;BME280;60583;50.094;8.748;2022-07-23T05:26:10;100565.03;;;20.57;66.93
72558;BME280;60583;50.094;8.748;2022-07-23T05:28:36;100559.06;;;20.60;67.11
72558;BME280;60583;50.094;8.748;2022-07-23T05:31:01;100546.53;;;20.49;67.45
72558;BME280;60583;50.094;8.748;2022-07-23T05:33:27;100549.66;;;20.35;67.66
72558;BME280;60583;50.094;8.748;2022-07-23T05:35:53;100553.44;;;20.34;67.55
72558;BME280;60583;50.094;8.748;2022-07-23T05:38:18;100562.69;;;20.39;67.19
72558;BME280;60583;50.094;8.748;2022-07-23T05:40:43;100573.88;;;20.20;67.61
72558;BME280;60583;50.094;8.748;2022-07-23T05:43:09;100576.16;;;20.28;67.61
72558;BME280;60583;50.094;8.748;2022-07-23T05:45:34;100584.25;;;20.23;67.56
72558;BME280;60583;50.094;8.748;2022-07-23T05:48:00;100582.50;;;20.17;67.83
72558;BME280;60583;50.094;8.748;2022-07-23T05:50:25;100571.16;;;20.20;67.77
72558;BME280;60583;50.094;8.748;2022-07-23T05:52:50;100582.56;;;20.22;67.61
72558;BME280;60583;50.094;8.748;2022-07-23T05:55:16;100593.97;;;20.24;67.21
72558;BME280;60583;50.094;8.748;2022-07-23T05:57:41;100590.47;;;20.24;67.37
72558;BME280;60583;50.094;8.748;2022-07-23T06:00:09;100592.00;;;20.42;66.65
72558;BME280;60583;50.094;8.748;2022-07-23T06:02:34;100588.22;;;20.48;66.35
72558;BME280;60583;50.094;8.748;2022-07-23T06:05:00;100581.75;;;20.49;66.26
72558;BME280;60583;50.094;8.748;2022-07-23T06:07:25;100585.47;;;20.43;66.19
72558;BME280;60583;50.094;8.748;2022-07-23T06:09:51;100585.25;;;20.44;66.27
72558;BME280;60583;50.094;8.748;2022-07-23T06:12:16;100586.03;;;20.45;66.25
72558;BME280;60583;50.094;8.748;2022-07-23T06:14:42;100590.94;;;20.48;65.80
72558;BME280;60583;50.094;8.748;2022-07-23T06:17:08;100590.94;;;20.48;65.81
72558;BME280;60583;50.094;8.748;2022-07-23T06:19:34;100594.50;;;20.53;65.62
72558;BME280;60583;50.094;8.748;2022-07-23T06:21:59;100595.19;;;20.70;64.55
72558;BME280;60583;50.094;8.748;2022-07-23T06:24:24;100593.97;;;20.88;63.56
72558;BME280;60583;50.094;8.748;2022-07-23T06:26:50;100599.19;;;21.05;62.92
72558;BME280;60583;50.094;8.748;2022-07-23T06:29:15;100595.00;;;21.19;62.32
72558;BME280;60583;50.094;8.748;2022-07-23T06:31:41;100597.47;;;21.25;61.71
72558;BME280;60583;50.094;8.748;2022-07-23T06:34:06;100584.50;;;21.42;61.16
72558;BME280;60583;50.094;8.748;2022-07-23T06:36:31;100597.59;;;21.50;61.25
72558;BME280;60583;50.094;8.748;2022-07-23T06:38:57;100598.19;;;21.68;60.43
72558;BME280;60583;50.094;8.748;2022-07-23T06:41:22;100602.03;;;21.72;60.27
72558;BME280;60583;50.094;8.748;2022-07-23T06:43:48;100601.19;;;21.71;59.94
72558;BME280;60583;50.094;8.748;2022-07-23T06:46:13;100605.31;;;21.84;59.90
72558;BME280;60583;50.094;8.748;2022-07-23T06:48:39;100607.19;;;21.83;59.60
72558;BME280;60583;50.094;8.748;2022-07-23T06:51:04;100608.03;;;21.84;59.39
72558;BME280;60583;50.094;8.748;2022-07-23T06:53:30;100602.13;;;21.92;59.24
72558;BME280;60583;50.094;8.748;2022-07-23T06:55:55;100607.31;;;22.13;58.49
72558;BME280;60583;50.094;8.748;2022-07-23T06:58:21;100590.78;;;22.30;58.45
72558;BME280;60583;50.094;8.748;2022-07-23T07:00:46;100589.69;;;22.51;57.23
72558;BME280;60583;50.094;8.748;2022-07-23T07:03:12;100598.16;;;22.70;57.47
72558;BME280;60583;50.094;8.748;2022-07-23T07:05:37;100604.41;;;22.75;56.69
72558;BME280;60583;50.094;8.748;2022-07-23T07:08:04;100607.13;;;22.80;56.84
72558;BME280;60583;50.094;8.748;2022-07-23T07:10:30;100610.88;;;22.95;56.02
72558;BME280;60583;50.094;8.748;2022-07-23T07:12:55;100615.22;;;23.11;55.70
72558;BME280;60583;50.094;8.748;2022-07-23T07:15:21;100614.66;;;23.09;55.35
72558;BME280;60583;50.094;8.748;2022-07-23T07:17:46;100620.88;;;23.39;54.59
72558;BME280;60583;50.094;8.748;2022-07-23T07:20:12;100613.78;;;23.54;54.12
72558;BME280;60583;50.094;8.748;2022-07-23T07:22:38;100609.91;;;23.60;53.93
72558;BME280;60583;50.094;8.748;2022-07-23T07:25:03;100617.19;;;23.74;53.19
72558;BME280;60583;50.094;8.748;2022-07-23T07:27:29;100629.22;;;23.68;53.35
72558;BME280;60583;50.094;8.748;2022-07-23T07:29:54;100634.84;;;23.87;53.35
72558;BME280;60583;50.094;8.748;2022-07-23T07:32:19;100633.44;;;23.94;52.54
72558;BME280;60583;50.094;8.748;2022-07-23T07:34:45;100638.78;;;24.20;51.86
72558;BME280;60583;50.094;8.748;2022-07-23T07:37:10;100636.38;;;24.13;51.97
72558;BME280;60583;50.094;8.748;2022-07-23T07:39:36;100630.66;;;24.09;51.78
72558;BME280;60583;50.094;8.748;2022-07-23T07:42:01;100631.19;;;24.17;51.63
72558;BME280;60583;50.094;8.748;2022-07-23T07:44:27;100635.53;;;24.18;52.24
72558;BME280;60583;50.094;8.748;2022-07-23T07:46:52;100633.94;;;24.12;52.05
72558;BME280;60583;50.094;8.748;2022-07-23T07:49:18;100639.81;;;24.29;51.76
72558;BME280;60583;50.094;8.748;2022-07-23T07:51:45;100646.31;;;24.38;51.23
72558;BME280;60583;50.094;8.748;2022-07-23T07:54:10;100648.81;;;24.68;51.11
72558;BME280;60583;50.094;8.748;2022-07-23T07:56:36;100654.09;;;24.54;51.44
72558;BME280;60583;50.094;8.748;2022-07-23T07:59:01;100655.81;;;24.84;50.61
72558;BME280;60583;50.094;8.748;2022-07-23T08:01:26;100662.28;;;24.54;51.24
72558;BME280;60583;50.094;8.748;2022-07-23T08:03:52;100664.09;;;24.69;51.00
72558;BME280;60583;50.094;8.748;2022-07-23T08:06:17;100660.75;;;24.38;51.67
72558;BME280;60583;50.094;8.748;2022-07-23T08:08:43;100662.41;;;24.73;51.76
72558;BME280;60583;50.094;8.748;2022-07-23T08:11:08;100648.50;;;24.74;51.02
72558;BME280;60583;50.094;8.748;2022-07-23T08:13:33;100660.38;;;25.22;49.94
72558;BME280;60583;50.094;8.748;2022-07-23T08:15:59;100662.53;;;25.20;49.93
72558;BME280;60583;50.094;8.748;2022-07-23T08:18:24;100662.50;;;25.54;49.20
72558;BME280;60583;50.094;8.748;2022-07-23T08:20:49;100670.31;;;25.61;49.13
72558;BME280;60583;50.094;8.748;2022-07-23T08:23:15;100676.28;;;25.68;48.15
72558;BME280;60583;50.094;8.748;2022-07-23T08:25:43;100677.63;;;25.13;49.11
72558;BME280;60583;50.094;8.748;2022-07-23T08:28:11;100668.19;;;25.00;49.65
72558;BME280;60583;50.094;8.748;2022-07-23T08:30:37;100669.59;;;24.98;50.59
72558;BME280;60583;50.094;8.748;2022-07-23T08:33:11;100674.63;;;25.14;49.53
72558;BME280;60583;50.094;8.748;2022-07-23T08:35:41;100673.56;;;25.10;49.31
72558;BME280;60583;50.094;8.748;2022-07-23T08:38:09;100685.91;;;25.03;49.65
72558;BME280;60583;50.094;8.748;2022-07-23T08:40:40;100688.84;;;25.11;49.88
72558;BME280;60583;50.094;8.748;2022-07-23T08:43:07;100681.59;;;25.25;49.26
72558;BME280;60583;50.094;8.748;2022-07-23T08:45:39;100691.28;;;25.42;49.89
72558;BME280;60583;50.094;8.748;2022-07-23T08:48:07;100685.81;;;25.42;49.31
72558;BME280;60583;50.094;8.748;2022-07-23T08:50:34;100689.94;;;25.68;48.31
72558;BME280;60583;50.094;8.748;2022-07-23T08:53:02;100681.41;;;25.46;48.69
72558;BME280;60583;50.094;8.748;2022-07-23T08:55:30;100687.72;;;25.46;48.92
72558;BME280;60583;50.094;8.748;2022-07-23T08:57:56;100669.94;;;25.72;48.29
72558;BME280;60583;50.094;8.748;2022-07-23T09:00:22;100685.25;;;26.16;48.03
72558;BME280;60583;50.094;8.748;2022-07-23T09:02:48;100673.50;;;26.52;46.82
72558;BME280;60583;50.094;8.748;2022-07-23T09:05:16;100680.50;;;26.58;46.52
72558;BME280;60583;50.094;8.748;2022-07-23T09:08:07;100675.88;;;26.78;45.99
72558;BME280;60583;50.094;8.748;2022-07-23T09:10:46;100684.56;;;27.12;45.63
72558;BME280;60583;50.094;8.748;2022-07-23T09:13:31;100681.84;;;27.12;45.29
72558;BME280;60583;50.094;8.748;2022-07-23T09:16:00;100680.47;;;27.28;44.05
72558;BME280;60583;50.094;8.748;2022-07-23T09:18:38;100679.06;;;27.44;44.02
72558;BME280;60583;50.094;8.748;2022-07-23T09:21:11;100668.13;;;27.44;42.87
72558;BME280;60583;50.094;8.748;2022-07-23T09:23:38;100667.91;;;27.54;43.39
72558;BME280;60583;50.094;8.748;2022-07-23T09:26:38;100665.19;;;27.41;42.56
72558;BME280;60583;50.094;8.748;2022-07-23T09:29:09;100664.75;;;27.34;43.77
72558;BME280;60583;50.094;8.748;2022-07-23T09:34:15;100677.91;;;27.64;43.02
72558;BME280;60583;50.094;8.748;2022-07-23T09:36:41;100676.88;;;27.73;42.36
72558;BME280;60583;50.094;8.748;2022-07-23T09:39:07;100687.31;;;27.85;41.62
72558;BME280;60583;50.094;8.748;2022-07-23T09:41:44;100680.50;;;28.10;40.34
72558;BME280;60583;50.094;8.748;2022-07-23T09:44:14;100689.03;;;27.95;40.49
72558;BME280;60583;50.094;8.748;2022-07-23T09:46:41;100683.34;;;28.18;39.92
72558;BME280;60583;50.094;8.748;2022-07-23T09:49:20;100690.88;;;28.48;40.16
72558;BME280;60583;50.094;8.748;2022-07-23T09:51:54;100682.91;;;28.25;39.77
72558;BME280;60583;50.094;8.748;2022-07-23T09:54:36;100688.00;;;28.18;40.21
72558;BME280;60583;50.094;8.748;2022-07-23T09:59:32;100692.88;;;28.92;38.83
72558;BME280;60583;50.094;8.748;2022-07-23T10:01:59;100685.22;;;29.12;37.89
72558;BME280;60583;50.094;8.748;2022-07-23T10:04:27;100680.88;;;29.41;37.30
72558;BME280;60583;50.094;8.748;2022-07-23T10:06:55;100674.97;;;29.56;36.20
72558;BME280;60583;50.094;8.748;2022-07-23T10:09:26;100681.13;;;29.00;36.55
72558;BME280;60583;50.094;8.748;2022-07-23T10:11:55;100687.91;;;29.56;36.16
72558;BME280;60583;50.094;8.748;2022-07-23T10:14:24;100674.88;;;29.70;35.66
72558;BME280;60583;50.094;8.748;2022-07-23T10:16:50;100686.47;;;30.06;34.84
72558;BME280;60583;50.094;8.748;2022-07-23T10:19:17;100683.63;;;28.66;36.62
72558;BME280;60583;50.094;8.748;2022-07-23T10:21:49;100688.84;;;29.21;36.61
72558;BME280;60583;50.094;8.748;2022-07-23T10:27:41;100677.75;;;30.21;34.65
72558;BME280;60583;50.094;8.748;2022-07-23T10:41:14;100676.38;;;31.39;32.52
72558;BME280;60583;50.094;8.748;2022-07-23T10:43:39;100672.03;;;29.92;33.84
72558;BME280;60583;50.094;8.748;2022-07-23T10:46:21;100673.22;;;30.34;34.18
72558;BME280;60583;50.094;8.748;2022-07-23T10:49:26;100672.75;;;30.83;32.95
72558;BME280;60583;50.094;8.748;2022-07-23T10:57:17;100660.78;;;31.81;32.17
72558;BME280;60583;50.094;8.748;2022-07-23T11:00:12;100668.00;;;31.94;31.94
72558;BME280;60583;50.094;8.748;2022-07-23T11:02:40;100669.63;;;32.24;31.62
72558;BME280;60583;50.094;8.748;2022-07-23T11:05:08;100670.41;;;32.45;30.23
72558;BME280;60583;50.094;8.748;2022-07-23T11:07:35;100661.03;;;32.38;30.18
72558;BME280;60583;50.094;8.748;2022-07-23T11:10:00;100662.44;;;31.73;30.64
72558;BME280;60583;50.094;8.748;2022-07-23T11:17:25;100655.63;;;31.33;31.98
72558;BME280;60583;50.094;8.748;2022-07-23T11:25:08;100654.59;;;32.54;30.47
72558;BME280;60583;50.094;8.748;2022-07-23T11:27:44;100655.31;;;32.96;29.45
72558;BME280;60583;50.094;8.748;2022-07-23T11:32:55;100648.66;;;33.66;28.19
72558;BME280;60583;50.094;8.748;2022-07-23T11:35:48;100640.19;;;34.51;26.79
72558;BME280;60583;50.094;8.748;2022-07-23T11:38:23;100645.03;;;35.72;25.38
72558;BME280;60583;50.094;8.748;2022-07-23T11:40:54;100651.69;;;37.17;23.24
72558;BME280;60583;50.094;8.748;2022-07-23T11:43:20;100642.66;;;37.24;22.56
72558;BME280;60583;50.094;8.748;2022-07-23T11:45:48;100622.63;;;38.16;21.60
72558;BME280;60583;50.094;8.748;2022-07-23T11:48:26;100639.75;;;36.56;23.20
72558;BME280;60583;50.094;8.748;2022-07-23T11:50:54;100633.50;;;37.23;22.07
72558;BME280;60583;50.094;8.748;2022-07-23T11:53:33;100638.63;;;37.93;21.50
72558;BME280;60583;50.094;8.748;2022-07-23T11:56:07;100628.88;;;38.06;21.37
72558;BME280;60583;50.094;8.748;2022-07-23T11:58:33;100630.50;;;37.84;21.53
72558;BME280;60583;50.094;8.748;2022-07-23T12:00:59;100633.44;;;36.20;23.04
72558;BME280;60583;50.094;8.748;2022-07-23T12:03:25;100626.41;;;35.25;24.67
72558;BME280;60583;50.094;8.748;2022-07-23T12:05:56;100632.19;;;36.18;23.78
72558;BME280;60583;50.094;8.748;2022-07-23T12:08:21;100629.09;;;35.38;24.05
72558;BME280;60583;50.094;8.748;2022-07-23T12:10:47;100624.59;;;35.80;24.13
72558;BME280;60583;50.094;8.748;2022-07-23T12:13:14;100621.34;;;35.00;25.31
72558;BME280;60583;50.094;8.748;2022-07-23T12:15:43;100618.09;;;33.75;26.38
72558;BME280;60583;50.094;8.748;2022-07-23T12:18:14;100615.16;;;34.20;25.55
72558;BME280;60583;50.094;8.748;2022-07-23T12:20:52;100615.50;;;35.64;23.65
72558;BME280;60583;50.094;8.748;2022-07-23T12:23:19;100623.06;;;36.75;22.52
72558;BME280;60583;50.094;8.748;2022-07-23T12:25:46;100624.72;;;37.44;21.46
72558;BME280;60583;50.094;8.748;2022-07-23T12:28:17;100615.34;;;34.67;23.96
72558;BME280;60583;50.094;8.748;2022-07-23T12:30:51;100613.47;;;33.79;25.54
72558;BME280;60583;50.094;8.748;2022-07-23T12:33:31;100608.84;;;34.07;25.42
72558;BME280;60583;50.094;8.748;2022-07-23T12:35:59;100613.06;;;34.17;25.00
72558;BME280;60583;50.094;8.748;2022-07-23T12:38:28;100607.28;;;35.20;23.56
72558;BME280;60583;50.094;8.748;2022-07-23T12:41:00;100617.16;;;33.95;25.12
72558;BME280;60583;50.094;8.748;2022-07-23T12:43:31;100606.31;;;32.19;28.03
72558;BME280;60583;50.094;8.748;2022-07-23T12:48:32;100612.66;;;33.54;26.20
72558;BME280;60583;50.094;8.748;2022-07-23T12:51:01;100610.88;;;33.01;27.33
72558;BME280;60583;50.094;8.748;2022-07-23T12:53:30;100605.38;;;34.38;25.39
72558;BME280;60583;50.094;8.748;2022-07-23T12:56:22;100600.97;;;34.09;25.66
72558;BME280;60583;50.094;8.748;2022-07-23T13:02:07;100599.66;;;34.31;25.37
72558;BME280;60583;50.094;8.748;2022-07-23T13:04:25;100596.31;;;33.73;26.40
72558;BME280;60583;50.094;8.748;2022-07-23T13:06:55;100609.69;;;33.83;26.81
72558;BME280;60583;50.094;8.748;2022-07-23T13:09:25;100601.44;;;34.94;25.14
72558;BME280;60583;50.094;8.748;2022-07-23T13:11:53;100611.50;;;34.71;25.20
72558;BME280;60583;50.094;8.748;2022-07-23T13:14:20;100608.72;;;33.91;26.09
72558;BME280;60583;50.094;8.748;2022-07-23T13:16:46;100613.34;;;34.67;24.55
72558;BME280;60583;50.094;8.748;2022-07-23T13:19:12;100614.78;;;35.36;23.93
72558;BME280;60583;50.094;8.748;2022-07-23T13:21:38;100609.78;;;34.39;25.31
72558;BME280;60583;50.094;8.748;2022-07-23T13:24:04;100613.53;;;34.58;25.07
72558;BME280;60583;50.094;8.748;2022-07-23T13:26:30;100605.91;;;35.30;24.15
72558;BME280;60583;50.094;8.748;2022-07-23T13:28:55;100604.13;;;34.35;25.36
72558;BME280;60583;50.094;8.748;2022-07-23T13:31:21;100613.91;;;34.45;25.34
72558;BME280;60583;50.094;8.748;2022-07-23T13:33:47;100610.91;;;34.93;24.22